Time;durP1;ratioP1;P1;durP2;ratioP2;P2;SDS_P1;SDS_P2;PMS_P1;PMS_P2;Temp;Humidity;BMP_temperature;BMP_pressure;BME280_temperature;BME280_humidity;BME280_pressure;Samples;Min_cycle;Max_cycle;Signal;HPM_P1;HPM_P2
2022/09/17 00:01:21;;;;;;;3.63;1.40;;;;;;;;;;4992148;28;20192;-69
2022/09/17 00:03:49;;;;;;;5.60;1.07;;;;;;;;;;4974666;28;20229;-70
2022/09/17 00:06:16;;;;;;;3.53;1.27;;;;;;;;;;4978860;28;20255;-68
2022/09/17 00:08:42;;;;;;;2.40;1.07;;;;;;;;;;4992193;28;20200;-69
2022/09/17 00:11:13;;;;;;;2.50;1.00;;;;;;;;;;4992539;28;20200;-68
2022/09/17 00:13:40;;;;;;;2.73;1.07;;;;;;;;;;4990937;28;20656;-68
2022/09/17 00:16:07;;;;;;;2.83;1.23;;;;;;;;;;4990884;28;20196;-68
2022/09/17 00:18:35;;;;;;;4.30;1.20;;;;;;;;;;4990399;28;20247;-68
2022/09/17 00:21:02;;;;;;;3.70;1.00;;;;;;;;;;4991872;28;20195;-69
2022/09/17 00:23:29;;;;;;;2.90;0.90;;;;;;;;;;4992173;28;20193;-69
2022/09/17 00:25:55;;;;;;;3.47;1.27;;;;;;;;;;4991774;28;20586;-68
2022/09/17 00:28:22;;;;;;;4.53;1.40;;;;;;;;;;4991659;28;20271;-69
2022/09/17 00:30:49;;;;;;;2.93;1.10;;;;;;;;;;4991997;28;20193;-68
2022/09/17 00:33:16;;;;;;;2.17;1.10;;;;;;;;;;4991369;28;20207;-69
2022/09/17 00:35:42;;;;;;;4.23;1.10;;;;;;;;;;4991771;28;20189;-69
2022/09/17 00:38:09;;;;;;;2.27;1.00;;;;;;;;;;4991974;28;20224;-69
2022/09/17 00:40:36;;;;;;;2.13;0.97;;;;;;;;;;4990144;28;20253;-69
2022/09/17 00:43:03;;;;;;;1.53;0.90;;;;;;;;;;4990216;28;20197;-69
2022/09/17 00:45:31;;;;;;;2.03;1.00;;;;;;;;;;4989390;28;20734;-69
2022/09/17 00:48:01;;;;;;;2.73;1.00;;;;;;;;;;4991257;28;20200;-68
2022/09/17 00:50:27;;;;;;;1.80;1.00;;;;;;;;;;4990427;28;20192;-68
2022/09/17 00:52:59;;;;;;;2.77;1.10;;;;;;;;;;4991338;28;20191;-68
2022/09/17 00:55:27;;;;;;;5.57;1.23;;;;;;;;;;4990043;28;20221;-69
2022/09/17 00:57:54;;;;;;;2.17;0.90;;;;;;;;;;4990098;28;20275;-69
2022/09/17 01:00:21;;;;;;;1.47;0.83;;;;;;;;;;4990773;28;20529;-68
2022/09/17 01:02:48;;;;;;;5.40;0.83;;;;;;;;;;4990811;28;20599;-68
2022/09/17 01:05:15;;;;;;;3.80;1.00;;;;;;;;;;4991370;28;20200;-69
2022/09/17 01:07:50;;;;;;;3.23;0.90;;;;;;;;;;4989883;28;20244;-69
2022/09/17 01:10:36;;;;;;;2.60;0.80;;;;;;;;;;4990742;28;20194;-69
2022/09/17 01:13:02;;;;;;;2.13;0.90;;;;;;;;;;4991034;28;20202;-68
2022/09/17 01:15:48;;;;;;;2.00;0.87;;;;;;;;;;4991009;28;20202;-68
2022/09/17 01:18:37;;;;;;;1.30;0.90;;;;;;;;;;4977858;28;20240;-69
2022/09/17 01:21:23;;;;;;;4.10;1.23;;;;;;;;;;4989344;28;20635;-68
2022/09/17 01:23:53;;;;;;;1.63;0.97;;;;;;;;;;4990948;28;20192;-69
2022/09/17 01:26:23;;;;;;;2.20;1.03;;;;;;;;;;4990616;28;20193;-69
2022/09/17 01:29:04;;;;;;;2.33;1.10;;;;;;;;;;4990547;28;20612;-69
2022/09/17 01:31:51;;;;;;;4.83;1.40;;;;;;;;;;4983434;28;20300;-69
2022/09/17 01:34:33;;;;;;;4.70;1.50;;;;;;;;;;4992875;28;20224;-69
2022/09/17 01:37:00;;;;;;;3.60;1.17;;;;;;;;;;4991905;28;20231;-69
2022/09/17 01:39:32;;;;;;;3.00;1.30;;;;;;;;;;4976820;28;20232;-69
2022/09/17 01:42:08;;;;;;;2.97;1.67;;;;;;;;;;4988848;28;20196;-69
2022/09/17 01:44:49;;;;;;;3.60;1.13;;;;;;;;;;4989317;28;20200;-69
2022/09/17 01:47:26;;;;;;;2.40;1.27;;;;;;;;;;4989167;28;20229;-69
2022/09/17 01:49:54;;;;;;;3.00;1.17;;;;;;;;;;4989084;28;20216;-69
2022/09/17 01:52:21;;;;;;;1.73;1.00;;;;;;;;;;4989822;28;20536;-69
2022/09/17 01:54:49;;;;;;;3.03;0.90;;;;;;;;;;4988875;28;20185;-69
2022/09/17 01:57:22;;;;;;;1.83;1.10;;;;;;;;;;4988405;28;20208;-69
2022/09/17 01:59:50;;;;;;;2.60;1.00;;;;;;;;;;4989922;28;20235;-69
2022/09/17 02:02:28;;;;;;;1.13;0.80;;;;;;;;;;4989021;28;20690;-69
2022/09/17 02:05:00;;;;;;;1.53;0.87;;;;;;;;;;4988669;28;20693;-69
2022/09/17 02:07:26;;;;;;;1.00;0.80;;;;;;;;;;4988709;28;20272;-69
2022/09/17 02:09:56;;;;;;;1.83;0.90;;;;;;;;;;4988691;28;20206;-69
2022/09/17 02:12:27;;;;;;;2.73;0.90;;;;;;;;;;4989994;28;20188;-69
2022/09/17 02:14:55;;;;;;;1.70;1.10;;;;;;;;;;4989140;28;20185;-69
2022/09/17 02:17:26;;;;;;;1.83;1.00;;;;;;;;;;4988721;28;20295;-69
2022/09/17 02:19:53;;;;;;;3.23;1.20;;;;;;;;;;4988814;28;20224;-69
2022/09/17 02:22:22;;;;;;;6.07;1.40;;;;;;;;;;4988214;28;20188;-69
2022/09/17 02:24:48;;;;;;;1.90;1.30;;;;;;;;;;4977783;28;20188;-69
2022/09/17 02:27:16;;;;;;;3.77;1.47;;;;;;;;;;4989586;28;20212;-69
2022/09/17 02:29:43;;;;;;;1.90;1.30;;;;;;;;;;4989662;28;20351;-69
2022/09/17 02:32:10;;;;;;;4.03;1.50;;;;;;;;;;4989181;28;20584;-69
2022/09/17 02:34:37;;;;;;;2.13;1.60;;;;;;;;;;4989403;28;20201;-68
2022/09/17 02:37:03;;;;;;;3.70;1.90;;;;;;;;;;4988652;28;20247;-69
2022/09/17 02:39:30;;;;;;;2.57;1.70;;;;;;;;;;4988544;28;20277;-69
2022/09/17 02:42:16;;;;;;;6.60;1.90;;;;;;;;;;4975912;28;20197;-69
2022/09/17 02:44:54;;;;;;;3.20;1.80;;;;;;;;;;4989877;28;20188;-69
2022/09/17 02:47:24;;;;;;;3.17;1.50;;;;;;;;;;4989046;28;20664;-69
2022/09/17 02:49:57;;;;;;;4.63;1.57;;;;;;;;;;4988675;28;20280;-68
2022/09/17 02:52:26;;;;;;;2.50;1.70;;;;;;;;;;4990056;28;20197;-69
2022/09/17 02:54:53;;;;;;;3.27;1.47;;;;;;;;;;4989420;28;20189;-70
2022/09/17 02:57:26;;;;;;;4.43;1.80;;;;;;;;;;4989199;28;20189;-69
2022/09/17 02:59:56;;;;;;;2.37;1.57;;;;;;;;;;4988355;28;20205;-69
2022/09/17 03:02:36;;;;;;;3.97;1.80;;;;;;;;;;4976537;28;20247;-69
2022/09/17 03:05:03;;;;;;;3.23;1.63;;;;;;;;;;4989437;28;20371;-69
2022/09/17 03:07:31;;;;;;;3.97;1.50;;;;;;;;;;4989731;28;20193;-68
2022/09/17 03:09:58;;;;;;;3.10;1.50;;;;;;;;;;4991891;28;20204;-69
2022/09/17 03:12:25;;;;;;;1.53;1.40;;;;;;;;;;4993068;28;20235;-69
2022/09/17 03:14:52;;;;;;;3.97;1.70;;;;;;;;;;4993354;28;20251;-69
2022/09/17 03:17:19;;;;;;;3.17;1.30;;;;;;;;;;4993117;28;20243;-69
2022/09/17 03:19:45;;;;;;;1.97;1.00;;;;;;;;;;4992776;28;20730;-69
2022/09/17 03:22:13;;;;;;;1.27;1.00;;;;;;;;;;4992864;28;20812;-69
2022/09/17 03:24:40;;;;;;;1.20;0.97;;;;;;;;;;4993201;28;20219;-68
2022/09/17 03:27:06;;;;;;;3.13;1.10;;;;;;;;;;4992844;28;20189;-68
2022/09/17 03:29:33;;;;;;;1.83;0.97;;;;;;;;;;4993075;28;20189;-68
2022/09/17 03:32:00;;;;;;;4.20;0.80;;;;;;;;;;4992576;28;20193;-68
2022/09/17 03:34:27;;;;;;;1.67;0.87;;;;;;;;;;4992669;28;20227;-68
2022/09/17 03:36:53;;;;;;;1.13;0.70;;;;;;;;;;4992906;28;20243;-69
2022/09/17 03:39:20;;;;;;;1.43;0.80;;;;;;;;;;4992469;28;20310;-69
2022/09/17 03:41:47;;;;;;;1.43;0.90;;;;;;;;;;4991327;28;20236;-70
2022/09/17 03:44:14;;;;;;;2.23;0.90;;;;;;;;;;4993027;28;20297;-68
2022/09/17 03:46:41;;;;;;;2.37;0.93;;;;;;;;;;4991245;28;20184;-68
2022/09/17 03:49:07;;;;;;;4.47;1.10;;;;;;;;;;4992261;28;20739;-68
2022/09/17 03:51:34;;;;;;;2.77;1.43;;;;;;;;;;4992172;28;20193;-69
2022/09/17 03:54:02;;;;;;;1.93;1.23;;;;;;;;;;4991124;28;20217;-68
2022/09/17 03:56:28;;;;;;;2.30;1.27;;;;;;;;;;4992699;28;20247;-68
2022/09/17 03:58:59;;;;;;;2.47;1.20;;;;;;;;;;4990759;28;20307;-69
2022/09/17 04:01:26;;;;;;;3.67;1.53;;;;;;;;;;4992182;28;20196;-68
2022/09/17 04:03:52;;;;;;;2.40;1.43;;;;;;;;;;4983623;28;20206;-68
2022/09/17 04:06:20;;;;;;;3.53;1.33;;;;;;;;;;4977985;28;20197;-68
2022/09/17 04:08:46;;;;;;;2.07;1.10;;;;;;;;;;4987943;28;20199;-68
2022/09/17 04:11:16;;;;;;;3.37;1.60;;;;;;;;;;4991248;28;20199;-68
2022/09/17 04:13:44;;;;;;;2.23;1.20;;;;;;;;;;4988443;28;20291;-69
2022/09/17 04:16:11;;;;;;;1.70;1.33;;;;;;;;;;4990999;28;20189;-68
2022/09/17 04:18:38;;;;;;;2.57;1.30;;;;;;;;;;4990124;28;20236;-70
2022/09/17 04:21:04;;;;;;;2.00;1.30;;;;;;;;;;4989116;28;20259;-68
2022/09/17 04:23:31;;;;;;;3.57;1.50;;;;;;;;;;4984187;28;20193;-68
2022/09/17 04:25:58;;;;;;;3.53;1.30;;;;;;;;;;4990474;28;20208;-67
2022/09/17 04:28:25;;;;;;;1.30;1.10;;;;;;;;;;4988880;28;20840;-60
2022/09/17 04:30:52;;;;;;;3.67;3.20;;;;;;;;;;4983471;28;20197;-59
2022/09/17 04:33:19;;;;;;;2.37;1.47;;;;;;;;;;4989605;28;20220;-59
2022/09/17 04:35:46;;;;;;;13.30;2.27;;;;;;;;;;4981197;28;20182;-59
2022/09/17 04:38:17;;;;;;;5.27;2.50;;;;;;;;;;4985451;28;20221;-59
2022/09/17 04:40:45;;;;;;;3.67;2.60;;;;;;;;;;4984009;28;20201;-60
2022/09/17 04:43:12;;;;;;;3.07;2.13;;;;;;;;;;4989997;28;20185;-60
2022/09/17 04:45:39;;;;;;;3.80;2.20;;;;;;;;;;4990939;28;20280;-59
2022/09/17 04:48:07;;;;;;;4.40;2.10;;;;;;;;;;4990709;28;20603;-60
2022/09/17 04:50:34;;;;;;;3.40;2.30;;;;;;;;;;4979277;28;20190;-61
2022/09/17 04:53:02;;;;;;;3.87;2.10;;;;;;;;;;4991217;28;20240;-61
2022/09/17 04:55:30;;;;;;;4.17;2.57;;;;;;;;;;4991297;28;20185;-60
2022/09/17 04:57:57;;;;;;;3.73;2.30;;;;;;;;;;4979539;28;20198;-60
2022/09/17 05:00:23;;;;;;;2.50;1.97;;;;;;;;;;4988208;28;20193;-60
2022/09/17 05:02:52;;;;;;;5.17;2.30;;;;;;;;;;4973365;28;20200;-60
2022/09/17 05:05:19;;;;;;;4.40;2.60;;;;;;;;;;4981384;28;20208;-59
2022/09/17 05:07:46;;;;;;;5.10;2.47;;;;;;;;;;4979157;28;20185;-59
2022/09/17 05:10:13;;;;;;;4.43;2.87;;;;;;;;;;4989561;28;20228;-70
2022/09/17 05:12:40;;;;;;;3.70;2.43;;;;;;;;;;4989518;28;20185;-69
2022/09/17 05:15:07;;;;;;;3.20;2.23;;;;;;;;;;4981813;28;20196;-68
2022/09/17 05:17:34;;;;;;;2.50;2.23;;;;;;;;;;4984450;28;20194;-69
2022/09/17 05:20:01;;;;;;;3.93;2.70;;;;;;;;;;4995401;28;20730;-70
2022/09/17 05:22:28;;;;;;;3.43;2.77;;;;;;;;;;4984650;28;20185;-69
2022/09/17 05:24:56;;;;;;;3.50;2.67;;;;;;;;;;4961691;28;20617;-69
2022/09/17 05:27:22;;;;;;;3.33;2.50;;;;;;;;;;4979677;28;20648;-71
2022/09/17 05:29:49;;;;;;;3.03;2.57;;;;;;;;;;4980062;28;20207;-70
2022/09/17 05:32:17;;;;;;;4.00;2.60;;;;;;;;;;4985550;28;20519;-70
2022/09/17 05:34:44;;;;;;;5.80;2.80;;;;;;;;;;4974245;28;20197;-69
2022/09/17 05:37:11;;;;;;;5.37;2.63;;;;;;;;;;4996317;28;20189;-69
2022/09/17 05:39:38;;;;;;;5.13;3.00;;;;;;;;;;4985764;28;20321;-69
2022/09/17 05:42:05;;;;;;;5.53;2.93;;;;;;;;;;5002453;28;20199;-67
2022/09/17 05:44:32;;;;;;;6.07;3.80;;;;;;;;;;4986730;28;20185;-69
2022/09/17 05:47:00;;;;;;;5.80;3.90;;;;;;;;;;4984013;28;20200;-68
2022/09/17 05:49:29;;;;;;;4.53;3.33;;;;;;;;;;4986265;28;20556;-69
2022/09/17 05:51:59;;;;;;;6.13;3.37;;;;;;;;;;4983266;28;20194;-70
2022/09/17 05:54:26;;;;;;;5.93;3.60;;;;;;;;;;4982337;28;20252;-69
2022/09/17 05:56:53;;;;;;;6.73;3.50;;;;;;;;;;4980325;28;20197;-68
2022/09/17 05:59:20;;;;;;;4.87;3.80;;;;;;;;;;4975660;28;20221;-70
2022/09/17 06:01:49;;;;;;;4.87;3.30;;;;;;;;;;4982089;28;20203;-70
2022/09/17 06:04:19;;;;;;;3.87;2.97;;;;;;;;;;4980759;28;20307;-68
2022/09/17 06:06:46;;;;;;;4.83;3.30;;;;;;;;;;4987827;28;20229;-72
2022/09/17 06:09:13;;;;;;;3.43;3.00;;;;;;;;;;4961234;28;20190;-71
2022/09/17 06:11:40;;;;;;;4.53;3.10;;;;;;;;;;4985231;28;20191;-69
2022/09/17 06:14:08;;;;;;;3.57;2.77;;;;;;;;;;4977743;28;20193;-69
2022/09/17 06:16:35;;;;;;;5.90;3.03;;;;;;;;;;4986002;28;20235;-69
2022/09/17 06:19:02;;;;;;;4.60;3.10;;;;;;;;;;4989231;28;20580;-69
2022/09/17 06:21:29;;;;;;;4.33;2.90;;;;;;;;;;4989506;28;20212;-69
2022/09/17 06:23:56;;;;;;;3.27;2.97;;;;;;;;;;4989177;28;20193;-68
2022/09/17 06:26:23;;;;;;;4.47;3.20;;;;;;;;;;4989095;28;20193;-68
2022/09/17 06:28:50;;;;;;;4.43;2.93;;;;;;;;;;4989493;28;20196;-68
2022/09/17 06:31:17;;;;;;;3.27;2.80;;;;;;;;;;4989345;28;20239;-68
2022/09/17 06:33:43;;;;;;;3.23;2.90;;;;;;;;;;4989431;28;20192;-68
2022/09/17 06:36:11;;;;;;;4.83;2.93;;;;;;;;;;4983521;28;20229;-70
2022/09/17 06:38:40;;;;;;;3.30;2.70;;;;;;;;;;4996310;28;20291;-68
2022/09/17 06:41:07;;;;;;;3.40;2.73;;;;;;;;;;4989939;28;20275;-68
2022/09/17 06:43:34;;;;;;;3.50;2.70;;;;;;;;;;4990900;28;20196;-68
2022/09/17 06:46:01;;;;;;;3.03;2.20;;;;;;;;;;4985771;28;20197;-69
2022/09/17 06:48:28;;;;;;;3.33;2.73;;;;;;;;;;4980200;28;20268;-69
2022/09/17 06:50:57;;;;;;;2.70;2.37;;;;;;;;;;5002166;28;20261;-68
2022/09/17 06:53:24;;;;;;;3.53;2.50;;;;;;;;;;4988993;28;20201;-70
2022/09/17 06:55:51;;;;;;;3.03;2.50;;;;;;;;;;4989754;28;20193;-69
2022/09/17 06:58:19;;;;;;;5.30;2.90;;;;;;;;;;4985222;28;20197;-69
2022/09/17 07:00:46;;;;;;;4.13;2.50;;;;;;;;;;4977284;28;20197;-70
2022/09/17 07:03:13;;;;;;;4.47;2.70;;;;;;;;;;4988466;28;20255;-69
2022/09/17 07:05:41;;;;;;;3.80;2.50;;;;;;;;;;4986499;28;20220;-68
2022/09/17 07:08:09;;;;;;;4.13;2.33;;;;;;;;;;4980084;28;20201;-69
2022/09/17 07:10:55;;;;;;;4.13;2.10;;;;;;;;;;4979715;28;20166;-69
2022/09/17 07:13:22;;;;;;;3.77;2.20;;;;;;;;;;4984886;28;20247;-68
2022/09/17 07:15:56;;;;;;;1.87;1.73;;;;;;;;;;4980076;28;20198;-68
2022/09/17 07:18:26;;;;;;;3.00;2.10;;;;;;;;;;4987870;28;20258;-69
2022/09/17 07:20:56;;;;;;;3.73;1.80;;;;;;;;;;4981835;28;20196;-68
2022/09/17 07:23:23;;;;;;;3.27;2.00;;;;;;;;;;4984646;28;20223;-68
2022/09/17 07:25:52;;;;;;;3.13;2.00;;;;;;;;;;4982796;28;20716;-67
2022/09/17 07:28:39;;;;;;;2.97;1.70;;;;;;;;;;4980499;28;20184;-68
2022/09/17 07:31:06;;;;;;;2.60;1.50;;;;;;;;;;4979702;28;20186;-64
2022/09/17 07:33:50;;;;;;;2.73;2.00;;;;;;;;;;4979127;28;20267;-62
2022/09/17 07:36:17;;;;;;;2.70;1.50;;;;;;;;;;4981092;28;20196;-61
2022/09/17 07:38:44;;;;;;;2.63;1.90;;;;;;;;;;4985575;28;20240;-62
2022/09/17 07:41:12;;;;;;;2.60;1.63;;;;;;;;;;4991790;28;20279;-62
2022/09/17 07:43:38;;;;;;;2.83;1.60;;;;;;;;;;4992640;28;20633;-61
2022/09/17 07:46:23;;;;;;;7.10;1.40;;;;;;;;;;4992310;28;20196;-63
2022/09/17 07:48:50;;;;;;;2.20;1.30;;;;;;;;;;4991269;28;20199;-63
2022/09/17 07:51:34;;;;;;;3.80;1.43;;;;;;;;;;4976635;28;20178;-62
2022/09/17 07:54:01;;;;;;;3.63;1.40;;;;;;;;;;4992257;28;20664;-63
2022/09/17 07:56:28;;;;;;;3.43;1.50;;;;;;;;;;4978528;28;20612;-63
2022/09/17 07:58:55;;;;;;;3.33;1.70;;;;;;;;;;4984824;28;20213;-63
2022/09/17 08:01:22;;;;;;;3.57;1.73;;;;;;;;;;4990920;28;20263;-62
2022/09/17 08:03:50;;;;;;;4.03;1.77;;;;;;;;;;4979070;28;20279;-62
2022/09/17 08:06:21;;;;;;;2.00;1.47;;;;;;;;;;4973142;28;20197;-62
2022/09/17 08:08:48;;;;;;;3.57;1.80;;;;;;;;;;4987480;28;20235;-62
2022/09/17 08:11:16;;;;;;;3.37;1.73;;;;;;;;;;4984264;28;20196;-62
2022/09/17 08:14:03;;;;;;;2.90;1.80;;;;;;;;;;4986909;28;20193;-62
2022/09/17 08:16:30;;;;;;;5.67;2.10;;;;;;;;;;4982817;28;20196;-62
2022/09/17 08:18:57;;;;;;;4.53;1.80;;;;;;;;;;4986965;28;20257;-63
2022/09/17 08:21:25;;;;;;;3.33;2.30;;;;;;;;;;4983537;28;20284;-70
2022/09/17 08:23:52;;;;;;;2.80;2.10;;;;;;;;;;4974663;28;20221;-68
2022/09/17 08:26:21;;;;;;;11.97;3.33;;;;;;;;;;4981181;28;20565;-70
2022/09/17 08:28:49;;;;;;;17.80;3.77;;;;;;;;;;4991532;28;20227;-69
2022/09/17 08:31:17;;;;;;;3.77;2.47;;;;;;;;;;4991553;28;20217;-70
2022/09/17 08:33:43;;;;;;;13.67;3.97;;;;;;;;;;4990292;28;20200;-69
2022/09/17 08:36:11;;;;;;;4.90;2.47;;;;;;;;;;4991791;28;20529;-69
2022/09/17 08:38:39;;;;;;;3.23;2.30;;;;;;;;;;4992141;28;20204;-69
2022/09/17 08:41:06;;;;;;;2.93;2.20;;;;;;;;;;4991636;28;20197;-69
2022/09/17 08:43:33;;;;;;;3.63;2.10;;;;;;;;;;4991743;28;20247;-69
2022/09/17 08:46:00;;;;;;;3.50;2.00;;;;;;;;;;4990588;28;20204;-69
2022/09/17 08:48:28;;;;;;;3.60;1.90;;;;;;;;;;4991359;28;20670;-69
2022/09/17 08:50:54;;;;;;;2.37;1.60;;;;;;;;;;4990410;28;20212;-69
2022/09/17 08:53:31;;;;;;;3.50;1.63;;;;;;;;;;4991773;28;20219;-69
2022/09/17 08:56:05;;;;;;;3.10;1.60;;;;;;;;;;4990112;28;20697;-69
2022/09/17 08:58:44;;;;;;;2.47;1.60;;;;;;;;;;4974033;28;20205;-70
2022/09/17 09:01:14;;;;;;;2.70;1.67;;;;;;;;;;4991168;28;20730;-70
2022/09/17 09:03:59;;;;;;;2.83;1.60;;;;;;;;;;4989797;28;20189;-70
2022/09/17 09:06:27;;;;;;;4.30;2.10;;;;;;;;;;4990210;28;20529;-70
2022/09/17 09:08:58;;;;;;;3.47;2.00;;;;;;;;;;4990019;28;20181;-70
2022/09/17 09:11:26;;;;;;;2.73;1.60;;;;;;;;;;4989951;28;20196;-70
2022/09/17 09:13:54;;;;;;;3.43;1.77;;;;;;;;;;4990802;28;20185;-70
2022/09/17 09:16:22;;;;;;;2.37;1.80;;;;;;;;;;4970932;28;20262;-71
2022/09/17 09:18:53;;;;;;;2.33;1.70;;;;;;;;;;4987746;28;20318;-70
2022/09/17 09:21:33;;;;;;;4.50;1.80;;;;;;;;;;4989747;28;20180;-70
2022/09/17 09:24:15;;;;;;;2.50;1.67;;;;;;;;;;4983099;28;20206;-70
2022/09/17 09:26:45;;;;;;;2.57;1.63;;;;;;;;;;4981753;28;21011;-70
2022/09/17 09:29:21;;;;;;;3.27;1.50;;;;;;;;;;5000655;28;20189;-70
2022/09/17 09:31:54;;;;;;;2.37;1.37;;;;;;;;;;4997656;28;20253;-70
2022/09/17 09:34:22;;;;;;;2.80;1.50;;;;;;;;;;4996012;28;20191;-70
2022/09/17 09:36:49;;;;;;;2.83;1.40;;;;;;;;;;4993528;28;20193;-70
2022/09/17 09:39:16;;;;;;;4.13;1.30;;;;;;;;;;4978061;28;20704;-70
2022/09/17 09:41:44;;;;;;;4.03;1.30;;;;;;;;;;4988109;28;21029;-70
2022/09/17 09:44:14;;;;;;;2.90;1.23;;;;;;;;;;4992902;28;20192;-70
2022/09/17 09:46:41;;;;;;;4.13;1.10;;;;;;;;;;4997501;28;20214;-72
2022/09/17 09:49:28;;;;;;;2.60;1.00;;;;;;;;;;5009465;28;20258;-67
2022/09/17 09:52:19;;;;;;;2.07;0.90;;;;;;;;;;4993023;28;20280;-69
2022/09/17 09:54:46;;;;;;;1.97;1.20;;;;;;;;;;4999755;28;20227;-72
2022/09/17 09:57:14;;;;;;;2.17;1.30;;;;;;;;;;5003673;28;20270;-73
2022/09/17 09:59:40;;;;;;;1.67;1.30;;;;;;;;;;4988967;28;20251;-72
2022/09/17 10:02:07;;;;;;;2.80;1.60;;;;;;;;;;4992221;28;20196;-70
2022/09/17 10:04:36;;;;;;;5.37;1.67;;;;;;;;;;4999260;28;21030;-71
2022/09/17 10:07:03;;;;;;;4.17;1.80;;;;;;;;;;4991894;28;20452;-70
2022/09/17 10:09:31;;;;;;;4.80;1.90;;;;;;;;;;5001984;28;20586;-70
2022/09/17 10:11:59;;;;;;;2.77;1.03;;;;;;;;;;4978758;28;20737;-70
2022/09/17 10:14:26;;;;;;;2.97;0.93;;;;;;;;;;4991752;28;20223;-71
2022/09/17 10:17:17;;;;;;;1.70;1.03;;;;;;;;;;4990283;28;20237;-71
2022/09/17 10:19:45;;;;;;;10.57;1.23;;;;;;;;;;4982736;28;20282;-70
2022/09/17 10:22:23;;;;;;;1.67;0.80;;;;;;;;;;4992117;28;20192;-71
2022/09/17 10:24:50;;;;;;;1.53;0.90;;;;;;;;;;4975753;28;20195;-71
2022/09/17 10:27:17;;;;;;;3.47;1.00;;;;;;;;;;5005614;28;20192;-71
2022/09/17 10:29:45;;;;;;;1.77;0.87;;;;;;;;;;4988959;28;20556;-72
2022/09/17 10:32:16;;;;;;;1.60;0.70;;;;;;;;;;4996773;28;20655;-73
2022/09/17 10:34:56;;;;;;;2.67;1.10;;;;;;;;;;4997521;28;20196;-72
2022/09/17 10:37:41;;;;;;;0.87;0.53;;;;;;;;;;4986529;28;20196;-71
2022/09/17 10:40:17;;;;;;;2.57;0.80;;;;;;;;;;4999882;28;20686;-71
2022/09/17 10:42:49;;;;;;;1.47;0.70;;;;;;;;;;4989264;28;20188;-66
2022/09/17 10:45:26;;;;;;;1.13;0.60;;;;;;;;;;4985037;28;20228;-62
2022/09/17 10:47:53;;;;;;;2.27;0.73;;;;;;;;;;5002424;28;20260;-62
2022/09/17 10:50:29;;;;;;;2.63;0.70;;;;;;;;;;5001580;28;20197;-65
2022/09/17 10:52:56;;;;;;;1.60;0.60;;;;;;;;;;4986098;28;20195;-65
2022/09/17 10:55:30;;;;;;;0.40;0.30;;;;;;;;;;4996301;28;20184;-69
2022/09/17 10:58:06;;;;;;;1.00;0.50;;;;;;;;;;4985347;28;20192;-69
2022/09/17 11:00:33;;;;;;;0.40;0.30;;;;;;;;;;4999856;28;20219;-70
2022/09/17 11:03:18;;;;;;;1.23;0.40;;;;;;;;;;5007204;28;20207;-70
2022/09/17 11:06:02;;;;;;;1.07;0.53;;;;;;;;;;5004154;28;20280;-70
2022/09/17 11:08:41;;;;;;;1.60;0.70;;;;;;;;;;4971515;28;20192;-70
2022/09/17 11:11:11;;;;;;;1.67;0.73;;;;;;;;;;4991648;28;20196;-70
2022/09/17 11:13:56;;;;;;;1.67;0.87;;;;;;;;;;4978839;28;20200;-69
2022/09/17 11:16:33;;;;;;;2.27;1.20;;;;;;;;;;4989460;28;20564;-69
2022/09/17 11:19:32;;;;;;;2.47;1.00;;;;;;;;;;5008106;28;20228;-69
2022/09/17 11:22:01;;;;;;;3.13;0.93;;;;;;;;;;4965325;28;20584;-69
2022/09/17 11:24:47;;;;;;;1.60;1.00;;;;;;;;;;5002847;28;20226;-70
2022/09/17 11:27:23;;;;;;;1.20;0.90;;;;;;;;;;4998061;28;20267;-70
2022/09/17 11:30:02;;;;;;;2.53;1.17;;;;;;;;;;5011499;28;20192;-64
2022/09/17 11:32:49;;;;;;;3.17;1.03;;;;;;;;;;5001647;28;20199;-60
2022/09/17 11:35:16;;;;;;;3.17;1.13;;;;;;;;;;5011988;28;20250;-63
2022/09/17 11:37:47;;;;;;;3.17;1.67;;;;;;;;;;5002625;28;20196;-61
2022/09/17 11:40:16;;;;;;;1.60;1.20;;;;;;;;;;4997217;28;21030;-62
2022/09/17 11:42:44;;;;;;;5.90;1.30;;;;;;;;;;4994414;28;20222;-59
2022/09/17 11:45:17;;;;;;;1.73;0.80;;;;;;;;;;5011440;28;20196;-62
2022/09/17 11:47:52;;;;;;;1.73;0.97;;;;;;;;;;5004680;28;20196;-64
2022/09/17 11:50:25;;;;;;;0.80;0.40;;;;;;;;;;5001024;28;20200;-60
2022/09/17 11:53:07;;;;;;;2.27;1.00;;;;;;;;;;4995007;28;20192;-62
2022/09/17 11:55:43;;;;;;;1.03;0.50;;;;;;;;;;5011208;28;20216;-63
2022/09/17 11:58:30;;;;;;;1.47;0.80;;;;;;;;;;5011525;28;20270;-62
2022/09/17 12:01:00;;;;;;;1.63;0.70;;;;;;;;;;5008020;28;20282;-63
2022/09/17 12:03:29;;;;;;;8.93;2.07;;;;;;;;;;5002229;28;20204;-62
2022/09/17 12:05:57;;;;;;;2.47;0.80;;;;;;;;;;5011709;28;20195;-62
2022/09/17 12:08:25;;;;;;;2.73;1.13;;;;;;;;;;5011834;28;20536;-63
2022/09/17 12:10:55;;;;;;;1.33;0.70;;;;;;;;;;4994669;28;20195;-62
2022/09/17 12:13:34;;;;;;;1.90;0.70;;;;;;;;;;5011809;28;21020;-62
2022/09/17 12:16:19;;;;;;;1.67;0.80;;;;;;;;;;4994556;28;20188;-62
2022/09/17 12:18:49;;;;;;;2.37;0.80;;;;;;;;;;5011121;28;20716;-62
2022/09/17 12:21:20;;;;;;;2.07;0.40;;;;;;;;;;4997978;28;20323;-62
2022/09/17 12:23:56;;;;;;;2.00;0.70;;;;;;;;;;4994173;28;20196;-62
2022/09/17 12:26:42;;;;;;;5.20;1.40;;;;;;;;;;5011584;28;20541;-61
2022/09/17 12:29:27;;;;;;;2.73;1.30;;;;;;;;;;5011334;28;20258;-63
2022/09/17 12:32:12;;;;;;;1.80;0.80;;;;;;;;;;5011525;28;20188;-62
2022/09/17 12:34:39;;;;;;;0.87;0.50;;;;;;;;;;5010993;28;20721;-62
2022/09/17 12:37:24;;;;;;;0.80;0.60;;;;;;;;;;5011398;28;20682;-62
2022/09/17 12:39:51;;;;;;;1.50;0.70;;;;;;;;;;5009771;28;20227;-62
2022/09/17 12:42:21;;;;;;;3.60;0.80;;;;;;;;;;5010996;28;20195;-62
2022/09/17 12:44:51;;;;;;;1.73;0.70;;;;;;;;;;4993815;28;20196;-65
2022/09/17 12:47:24;;;;;;;1.33;0.60;;;;;;;;;;4993976;28;20188;-62
2022/09/17 12:50:12;;;;;;;2.93;0.50;;;;;;;;;;5010713;28;20603;-63
2022/09/17 12:53:07;;;;;;;2.57;0.73;;;;;;;;;;5010239;28;20594;-62
2022/09/17 12:55:35;;;;;;;1.27;0.60;;;;;;;;;;4975431;28;20204;-62
2022/09/17 12:58:20;;;;;;;1.60;0.43;;;;;;;;;;4993678;28;20196;-62
2022/09/17 13:00:50;;;;;;;1.67;0.57;;;;;;;;;;4991323;28;20564;-63
2022/09/17 13:03:22;;;;;;;5.00;0.70;;;;;;;;;;5004036;28;20246;-62
2022/09/17 13:05:49;;;;;;;9.50;1.10;;;;;;;;;;4997659;28;20187;-63
2022/09/17 13:08:16;;;;;;;2.30;0.80;;;;;;;;;;5010534;28;20663;-74
2022/09/17 13:11:03;;;;;;;1.63;0.60;;;;;;;;;;5010795;28;20199;-74
2022/09/17 13:13:39;;;;;;;1.37;0.53;;;;;;;;;;5002479;28;20652;-74
2022/09/17 13:16:25;;;;;;;2.70;0.67;;;;;;;;;;5000675;28;20567;-75
2022/09/17 13:18:51;;;;;;;3.53;0.73;;;;;;;;;;4973295;28;20283;-71
2022/09/17 13:22:02;;;;;;;1.97;0.63;;;;;;;;;;4990061;28;20212;-73
2022/09/17 13:24:29;;;;;;;1.47;1.00;;;;;;;;;;4971503;28;20573;-74
2022/09/17 13:27:21;;;;;;;2.47;0.50;;;;;;;;;;4973326;28;20188;-69
2022/09/17 13:29:54;;;;;;;1.23;0.43;;;;;;;;;;4999466;28;20196;-69
2022/09/17 13:32:33;;;;;;;1.73;0.60;;;;;;;;;;4981219;28;20750;-68
2022/09/17 13:35:09;;;;;;;1.70;0.60;;;;;;;;;;4977274;28;20192;-68
2022/09/17 13:37:36;;;;;;;2.30;1.03;;;;;;;;;;4988670;28;20193;-70
2022/09/17 13:40:06;;;;;;;7.90;3.90;;;;;;;;;;5003802;28;20271;-71
2022/09/17 13:42:43;;;;;;;3.43;1.90;;;;;;;;;;4990246;28;20260;-70
2022/09/17 13:45:14;;;;;;;2.43;0.80;;;;;;;;;;5004133;28;20219;-69
2022/09/17 13:47:52;;;;;;;2.20;0.70;;;;;;;;;;5002054;28;20201;-69
2022/09/17 13:50:28;;;;;;;1.57;0.60;;;;;;;;;;4984717;28;20210;-69
2022/09/17 13:52:55;;;;;;;2.57;0.83;;;;;;;;;;4987146;28;20193;-68
2022/09/17 13:55:30;;;;;;;1.30;0.83;;;;;;;;;;5003734;28;20192;-69
2022/09/17 13:57:57;;;;;;;1.77;0.67;;;;;;;;;;4997875;28;20197;-68
2022/09/17 14:00:44;;;;;;;2.63;0.77;;;;;;;;;;4984896;28;20209;-70
2022/09/17 14:03:43;;;;;;;1.60;0.67;;;;;;;;;;4985007;28;20188;-69
2022/09/17 14:06:10;;;;;;;1.87;0.77;;;;;;;;;;4979395;28;20232;-69
2022/09/17 14:08:43;;;;;;;1.67;0.80;;;;;;;;;;4982815;28;20213;-70
2022/09/17 14:11:22;;;;;;;1.80;0.87;;;;;;;;;;4997201;28;20205;-70
2022/09/17 14:13:49;;;;;;;2.83;0.90;;;;;;;;;;4970841;28;20664;-70
2022/09/17 14:16:35;;;;;;;2.30;1.00;;;;;;;;;;4981323;28;20196;-70
2022/09/17 14:19:15;;;;;;;2.03;1.00;;;;;;;;;;4997666;28;20231;-70
2022/09/17 14:22:00;;;;;;;2.27;0.80;;;;;;;;;;5008843;28;20212;-70
2022/09/17 14:24:43;;;;;;;2.20;1.10;;;;;;;;;;4989598;28;20546;-69
2022/09/17 14:27:28;;;;;;;5.60;2.50;;;;;;;;;;5007730;28;20192;-68
2022/09/17 14:30:01;;;;;;;4.07;2.87;;;;;;;;;;5008022;28;20188;-68
2022/09/17 14:33:01;;;;;;;5.10;4.20;;;;;;;;;;5002116;28;20188;-68
2022/09/17 14:35:28;;;;;;;2.33;0.83;;;;;;;;;;4965339;28;20219;-68
2022/09/17 14:37:58;;;;;;;1.50;0.60;;;;;;;;;;5008087;28;20198;-68
2022/09/17 14:40:25;;;;;;;0.93;0.50;;;;;;;;;;4994735;28;20196;-68
2022/09/17 14:42:53;;;;;;;3.40;1.00;;;;;;;;;;5008965;28;20196;-68
2022/09/17 14:45:27;;;;;;;1.93;1.10;;;;;;;;;;5008582;28;20275;-68
2022/09/17 14:48:30;;;;;;;1.33;0.53;;;;;;;;;;4997280;28;20168;-68
2022/09/17 14:51:15;;;;;;;2.47;0.70;;;;;;;;;;5008343;28;20192;-68
2022/09/17 14:53:49;;;;;;;2.37;0.93;;;;;;;;;;5007544;28;20196;-68
2022/09/17 14:56:16;;;;;;;2.10;1.03;;;;;;;;;;4998683;28;20699;-69
2022/09/17 14:58:47;;;;;;;3.97;1.00;;;;;;;;;;4993042;28;20610;-69
2022/09/17 15:01:21;;;;;;;1.83;1.10;;;;;;;;;;4998959;28;20215;-69
2022/09/17 15:03:49;;;;;;;1.70;1.23;;;;;;;;;;4982068;28;20677;-69
2022/09/17 15:06:22;;;;;;;3.60;1.27;;;;;;;;;;4995402;28;20193;-69
2022/09/17 15:08:49;;;;;;;4.87;1.50;;;;;;;;;;5006626;28;20192;-69